Time Latitude Longitude Accuracy (66% radius in meters) Altitude (meters) Speed (km/hour) Bearing (degrees) Battery (%) GPS flag
06:49:46 57.205352 60.115457 0 0 0 0 1 delete
06:49:45 57.205360 60.115415 0 0 0 0 1 delete
06:49:44 57.205365 60.115378 0 0 0 0 1 delete
06:49:43 57.205370 60.115348 0 0 0 0 1 delete
06:49:42 57.205368 60.115317 0 0 0 0 1 delete
06:49:41 57.205355 60.115270 0 0 0 0 1 delete
06:49:40 57.205330 60.115248 0 0 0 0 1 delete
06:49:39 57.205310 60.115263 0 0 0 0 1 delete
06:49:38 57.205297 60.115287 0 0 0 0 1 delete
06:49:37 57.205285 60.115303 0 0 0 0 1 delete
06:49:36 57.205277 60.115290 0 0 0 0 1 delete
06:49:35 57.205267 60.115245 0 0 0 0 1 delete
06:49:34 57.205258 60.115192 0 0 0 0 1 delete
06:49:33 57.205257 60.115138 0 0 0 0 1 delete
06:49:32 57.205248 60.115077 0 0 0 0 1 delete
06:49:31 57.205237 60.115032 0 0 0 0 1 delete
06:49:30 57.205228 60.114988 0 0 0 0 1 delete
06:49:29 57.205217 60.114950 0 0 0 0 1 delete
06:49:28 57.205208 60.114913 0 0 0 0 1 delete
06:49:27 57.205197 60.114880 0 0 0 0 1 delete
06:49:26 57.205182 60.114843 0 0 0 0 1 delete
06:49:25 57.205170 60.114808 0 0 0 0 1 delete
06:49:24 57.205158 60.114767 0 0 0 0 1 delete
06:49:23 57.205150 60.114722 0 0 0 0 1 delete
06:49:22 57.205145 60.114673 0 0 0 0 1 delete
06:49:21 57.205138 60.114630 0 0 0 0 1 delete
06:49:20 57.205132 60.114575 0 0 0 0 1 delete
06:49:19 57.205125 60.114510 0 0 0 0 1 delete
06:49:18 57.205107 60.114452 0 0 0 0 1 delete
06:49:17 57.205082 60.114413 0 0 0 0 1 delete
06:49:16 57.205057 60.114408 0 0 0 0 1 delete
06:49:15 57.205030 60.114430 0 0 0 0 1 delete
06:49:14 57.205002 60.114460 0 0 0 0 1 delete
06:49:13 57.204978 60.114485 0 0 0 0 1 delete
06:49:12 57.204957 60.114490 0 0 0 0 1 delete
06:49:11 57.204935 60.114482 0 0 0 0 1 delete
06:49:10 57.204918 60.114480 0 0 0 0 1 delete
06:49:09 57.204913 60.114483 0 0 0 0 1 delete
06:49:08 57.204912 60.114487 0 0 0 0 1 delete
06:49:07 57.204923 60.114497 0 0 0 0 1 delete
06:49:06 57.204955 60.114493 0 0 0 0 1 delete
06:49:05 57.204992 60.114495 0 0 0 0 1 delete
06:49:04 57.205027 60.114497 0 0 0 0 1 delete
06:49:03 57.205057 60.114482 0 0 0 0 1 delete
06:49:02 57.205085 60.114457 0 0 0 0 1 delete
06:49:01 57.205108 60.114448 0 0 0 0 1 delete
06:49:00 57.205133 60.114470 0 0 0 0 1 delete
06:48:59 57.205142 60.114528 0 0 0 0 1 delete
06:48:58 57.205143 60.114615 0 0 0 0 1 delete
06:48:57 57.205148 60.114717 0 0 0 0 1 delete